Historyczne dane pomiarowe

Dodano dane terminowe – wersja testowa.

Dane z okresu 1951-2019

Wersja bazy: 1.34 [2019-03-16, lista zmian], aktualizacja planowana na 2019-04-15

Dane meteo z obszaru Polski uzyskane na podstawie danych udostępnionych przez Instytut Meteorologii i Gospodarki Wodnej – Państwowy Instytut Badawczy.

 

Wybierz Datę:    

       

TemperaturaWilgotnośćWiatrCiśnienieOpadyŚniegCzas trwania zjawisk
 Stacja t tx tn tng RH VA  wxwx mslp ppp RRR   cm mm wxwxwxwxwxwxwx
1987-08-14 15.3 20.7 12.3 8.0 87.3- 5.3 1.0---- 3.4------------
1987-08-13 13.7 20.7 9.9 6.8 82.3- 4.0 0.7---- 0.0------------
1987-08-12 11.9 17.8 5.9 4.3 72.5- 1.3 1.7---- 0.0------------
1987-08-11 12.6 17.2 10.9 10.8 86.3- 6.0 2.3---- 0.3------------
1987-08-10 13.6 16.2 11.9 11.3 93.5- 7.7 1.7---- 6.3------------
1987-08-09 15.3 24.2 10.4 7.1 78.8- 5.7 2.0---- 4.1------------
1987-08-08 13.2 20.9 7.9 4.2 81.0- 3.3 1.7---- 0.4------------
1987-08-07 11.0 19.2 5.0 2.2 70.0- 2.3 1.7---- 0.0------------
1987-08-06 9.8 14.3 7.9 6.3 87.5- 5.7 1.7---- 4.2------------
1987-08-05 11.2 15.7 7.4 5.6 84.3- 4.0 2.3---- 1.0------------
1987-08-04 12.2 17.3 11.7 10.0 89.8- 3.3 1.0---- 1.4------------
1987-08-03 13.7 19.3 9.4 6.8 85.3- 3.3 1.0---- 0.8------------
1987-08-02 13.2 18.7 11.2 8.8 83.5- 3.7 3.0---- 1.4------------
1987-08-01 14.4 17.7 11.9 10.8 89.0- 6.7 1.7---- 14.2------------
1987-07-31 14.4 19.1 12.5 10.8 84.3- 6.3 2.7---- 0.0------------
1987-07-30 17.5 25.2 11.9 10.8 78.3- 5.7 3.7---- 2.0------------
1987-07-29 14.1 18.1 11.0 9.3 81.0- 5.7 1.0---- 0.0------------
1987-07-28 12.5 14.1 11.8 10.8 89.8- 7.7 1.7---- 1.3------------
1987-07-27 12.2 17.2 9.2 7.8 78.0- 7.3 4.0---- 8.3------------
1987-07-26 13.1 17.7 10.3 9.0 70.5- 5.0 2.0---- 0.0------------
1987-07-25 16.2 20.9 14.5 13.3 81.8- 5.0 3.0---- 0.0------------
1987-07-24 19.3 24.7 13.9 11.8 79.8- 2.3 2.0---- 0.0------------
1987-07-23 19.9 26.3 14.4 11.3 81.5- 4.0 0.0---- 0.0------------
1987-07-22 17.0 21.2 11.8 10.7 82.3- 2.7 0.7---- 0.0------------
1987-07-21 15.6 20.3 13.9 12.7 89.8- 6.3 0.3---- 22.1------------
1987-07-20 18.1 23.6 14.9 14.8 85.0- 5.0 0.7---- 0.0------------
1987-07-19 18.5 22.2 14.9 14.8 82.3- 5.3 2.0---- 13.2------------
1987-07-18 19.2 21.3 18.1 15.4 82.0- 5.3 2.7---- 0.0------------
1987-07-17 22.0 29.1 14.9 9.8 73.3- 5.0 5.7---- 0.0------------
1987-07-16 21.0 27.1 14.9 13.2 69.3- 6.0 3.3---- 0.0------------
1987-07-15 18.5 24.2 12.9 10.8 70.0- 1.7 4.7---- 0.0------------
1987-07-14 15.2 21.2 7.5 5.3 70.8- 1.3 0.7---- 0.0------------
1987-07-13 15.5 19.7 11.4 8.7 78.3- 5.0 2.0---- 0.0------------
1987-07-12 18.7 27.1 15.7 12.3 83.0- 4.7 0.7---- 6.7------------
1987-07-11 16.6 24.7 9.9 7.2 78.0- 4.7 2.7---- 0.0------------
1987-07-10 14.3 18.7 9.9 8.3 67.3- 3.0 2.3---- 0.0------------
1987-07-09 16.3 19.7 12.6 11.8 80.5- 4.3 2.7---- 0.2------------
1987-07-08 19.5 26.6 14.9 12.3 83.0- 6.3 0.7---- 14.1------------
1987-07-07 19.9 27.3 13.9 9.8 61.5- 0.0 2.0---- 0.0------------
1987-07-06 17.1 24.7 9.8 8.8 71.0- 0.0 0.7---- 0.0------------
1987-07-05 15.7 20.3 9.4 6.8 74.8- 0.7 1.7---- 0.0------------
1987-07-04 18.1 22.2 15.5 15.3 70.8- 4.0 1.7---- 0.0------------
1987-07-03 18.4 23.7 14.1 12.8 73.3- 4.3 2.0---- 0.0------------
1987-07-02 18.8 22.7 16.3 15.8 76.8- 2.7 0.7---- 0.0------------
1987-07-01 23.7 31.0 19.5 16.3 82.0- 3.0 1.0---- 41.2------------
1987-06-30 24.3 30.6 17.4 14.3 72.8- 0.7 1.3---- 0.0------------
1987-06-29 20.4 26.6 14.9 12.8 85.3- 2.3 1.3---- 0.0------------
1987-06-28 17.8 23.3 13.7 11.3 87.5- 4.7 1.7---- 0.9------------
1987-06-27 16.6 21.7 14.9 14.8 86.5- 6.0 2.7---- 0.0------------
1987-06-26 15.9 23.2 9.7 7.8 81.0- 6.3 3.3---- 3.2------------
1987-06-25 13.2 17.7 10.9 10.5 89.5- 6.0 1.3---- 1.6------------
1987-06-24 14.0 19.3 11.9 10.3 84.5- 5.3 1.0---- 6.7------------
1987-06-23 14.1 19.3 11.3 8.3 83.5- 3.7 1.7---- 0.0------------
1987-06-22 13.4 17.7 10.9 10.8 84.8- 7.3 1.3---- 0.0------------
1987-06-21 15.4 20.4 11.4 9.8 89.0- 4.7 2.3---- 2.7------------
1987-06-20 15.1 21.5 10.4 8.4 72.0- 4.0 4.3---- 0.0------------
1987-06-19 12.6 18.2 7.9 7.2 73.0- 3.3 3.7---- 0.0------------
1987-06-18 8.6 13.8 6.3 3.2 88.8- 5.0 3.7---- 9.8------------
1987-06-17 11.6 16.3 9.1 8.3 70.3- 3.3 4.0---- 0.1------------
1987-06-16 10.9 16.8 8.1 7.8 86.0- 5.7 2.7---- 3.1------------
434.9 ms

 

Źródłem pochodzenia danych jest Instytut Meteorologii i Gospodarki Wodnej – Państwowy Instytut Badawczy. Dane Instytutu Meteorologii i Gospodarki Wodnej – Państwowego Instytutu Badawczego zostały przetworzone.

Dane źródłowe można odnaleźć na stronie https://dane.imgw.pl